Wadena, Iowa
Current Conditions -  °F | °C
As of 2:35 AM on Saturday 29 Nov 2014 (Local Time) from KOLZ Reporting Station
Haze Haze  
Wind Chill: 20°   Ceiling: Unl
Heat Index: 30°   Visibility: 5mi
Dew Point: 28°   Wind: 14mph
Humidity: 93%   Direction: 140°SE
Pressure: 29.63"   Gusts: NA
Location:  42.84°N, 91.66°W
Report Text: KOLZ 290835Z AUTO 14012KT 5SM BR CLR M01/M02 A2963 RMK AO2
Loading
Personal Weather Stations






























Interactive Weather Map New forecast layout! Learn more

10-Day Weather Forecast

Advertisements
Track Severe Weather on mobile